createdAt,value
2023-02-05T00:00:07.864Z,8.42
2023-02-05T00:02:36.239Z,8.38
2023-02-05T00:05:06.827Z,8.39
2023-02-05T00:07:34.911Z,8.46
2023-02-05T00:10:03.558Z,8.48
2023-02-05T00:12:31.839Z,8.65
2023-02-05T00:15:00.009Z,8.79
2023-02-05T00:17:28.618Z,8.51
2023-02-05T00:19:56.692Z,8.51
2023-02-05T00:22:26.284Z,8.63
2023-02-05T00:24:54.232Z,8.72
2023-02-05T00:27:22.587Z,8.81
2023-02-05T00:29:50.661Z,8.84
2023-02-05T00:32:18.598Z,8.93
2023-02-05T00:34:46.918Z,8.86
2023-02-05T00:37:14.963Z,8.64
2023-02-05T00:39:44.464Z,8.63
2023-02-05T00:42:13.642Z,8.74
2023-02-05T00:44:41.732Z,8.72
2023-02-05T00:47:09.760Z,8.79
2023-02-05T00:49:37.671Z,8.71
2023-02-05T00:52:05.872Z,8.72
2023-02-05T00:54:33.987Z,8.68
2023-02-05T00:57:03.611Z,8.74
2023-02-05T00:59:31.585Z,8.68
2023-02-05T01:02:00.130Z,8.55
2023-02-05T01:04:28.146Z,8.55
2023-02-05T01:06:56.198Z,8.51
2023-02-05T01:09:24.429Z,8.35
2023-02-05T01:11:52.617Z,8.36
2023-02-05T01:14:21.977Z,8.30
2023-02-05T01:16:50.369Z,8.24
2023-02-05T01:19:18.516Z,8.20
2023-02-05T01:21:46.517Z,8.13
2023-02-05T01:24:14.592Z,8.01
2023-02-05T01:26:42.512Z,8.10
2023-02-05T01:29:10.490Z,8.22
2023-02-05T01:31:47.681Z,8.29
2023-02-05T01:34:16.260Z,8.26
2023-02-05T01:36:44.571Z,8.23
2023-02-05T01:39:12.615Z,8.35
2023-02-05T01:41:42.692Z,8.47
2023-02-05T01:44:13.120Z,8.40
2023-02-05T01:46:43.671Z,8.30
2023-02-05T01:49:16.489Z,8.30
2023-02-05T01:51:46.475Z,8.20
2023-02-05T01:54:15.972Z,8.07
2023-02-05T01:56:50.513Z,8.11
2023-02-05T01:59:21.383Z,8.19
2023-02-05T02:01:51.925Z,8.10
2023-02-05T02:04:35.713Z,8.09
2023-02-05T02:07:04.111Z,8.20
2023-02-05T02:09:32.209Z,8.01
2023-02-05T02:12:00.314Z,7.94
2023-02-05T02:14:32.042Z,8.12
2023-02-05T02:17:03.873Z,8.34
2023-02-05T02:19:36.294Z,8.41
2023-02-05T02:22:24.177Z,8.41
2023-02-05T02:25:22.578Z,8.50
2023-02-05T02:27:55.663Z,8.42
2023-02-05T02:30:27.649Z,8.42
2023-02-05T02:33:05.085Z,8.44
2023-02-05T02:35:42.300Z,8.48
2023-02-05T02:38:16.959Z,8.29
2023-02-05T02:40:53.195Z,8.31
2023-02-05T02:43:31.726Z,8.30
2023-02-05T02:46:06.135Z,8.34
2023-02-05T02:48:39.083Z,8.17
2023-02-05T02:51:09.658Z,8.29
2023-02-05T02:53:41.008Z,8.24
2023-02-05T02:56:12.929Z,8.38
2023-02-05T02:59:06.220Z,8.27
2023-02-05T03:01:39.839Z,8.27
2023-02-05T03:04:12.994Z,8.30
2023-02-05T03:06:44.518Z,8.50
2023-02-05T03:09:19.289Z,8.44
2023-02-05T03:11:48.395Z,8.47
2023-02-05T03:14:25.290Z,8.63
2023-02-05T03:16:58.267Z,8.84
2023-02-05T03:19:28.270Z,8.87
2023-02-05T03:22:03.166Z,8.81
2023-02-05T03:24:36.660Z,8.79
2023-02-05T03:27:05.566Z,8.92
2023-02-05T03:29:44.654Z,8.91
2023-02-05T03:32:31.089Z,8.76
2023-02-05T03:35:10.927Z,8.66
2023-02-05T03:37:48.753Z,8.88
2023-02-05T03:40:25.700Z,8.81
2023-02-05T03:43:04.432Z,8.93
2023-02-05T03:45:47.022Z,9.01
2023-02-05T03:48:37.328Z,8.97
2023-02-05T03:51:22.793Z,8.95
2023-02-05T03:54:02.951Z,9.01
2023-02-05T03:56:38.534Z,9.15
2023-02-05T03:59:07.691Z,9.13
2023-02-05T04:01:37.412Z,9.20
2023-02-05T04:04:05.913Z,9.00
2023-02-05T04:06:33.937Z,8.99
2023-02-05T04:09:01.975Z,8.94
2023-02-05T04:11:32.929Z,8.99
2023-02-05T04:14:03.821Z,9.10
2023-02-05T04:16:32.937Z,9.06
2023-02-05T04:19:04.561Z,9.09
2023-02-05T04:21:35.818Z,9.05
2023-02-05T04:24:04.103Z,9.10
2023-02-05T04:26:32.424Z,9.13
2023-02-05T04:29:05.776Z,9.13
2023-02-05T04:31:41.050Z,8.93
2023-02-05T04:34:10.706Z,9.12
2023-02-05T04:36:39.124Z,9.16
2023-02-05T04:39:07.173Z,9.23
2023-02-05T04:41:35.225Z,9.27
2023-02-05T04:44:03.762Z,9.32
2023-02-05T04:46:32.339Z,9.23
2023-02-05T04:49:01.412Z,9.31
2023-02-05T04:51:30.950Z,9.27
2023-02-05T04:53:59.498Z,9.33
2023-02-05T04:56:29.745Z,9.36
2023-02-05T04:58:57.682Z,9.33
2023-02-05T05:01:25.827Z,9.36
2023-02-05T05:03:54.030Z,9.34
2023-02-05T05:06:22.225Z,9.33
2023-02-05T05:08:51.750Z,9.33
2023-02-05T05:11:20.733Z,9.11
2023-02-05T05:13:51.923Z,9.20
2023-02-05T05:16:20.309Z,9.09
2023-02-05T05:18:48.404Z,9.15
2023-02-05T05:21:16.500Z,9.16
2023-02-05T05:23:44.689Z,9.26
2023-02-05T05:26:14.513Z,9.25
2023-02-05T05:28:42.624Z,9.25
2023-02-05T05:31:13.802Z,9.06
2023-02-05T05:33:42.083Z,8.95
2023-02-05T05:36:10.550Z,8.97
2023-02-05T05:38:38.909Z,9.06
2023-02-05T05:41:24.464Z,9.06
2023-02-05T05:43:55.482Z,9.01
2023-02-05T05:46:26.112Z,9.02
2023-02-05T05:48:55.796Z,8.89
2023-02-05T05:51:26.002Z,8.87
2023-02-05T05:53:55.214Z,8.80
2023-02-05T05:56:23.873Z,8.90
2023-02-05T05:58:53.457Z,8.85
2023-02-05T06:01:23.002Z,8.94
2023-02-05T06:03:51.087Z,8.93
2023-02-05T06:06:19.478Z,8.95
2023-02-05T06:08:47.640Z,8.91
2023-02-05T06:11:15.771Z,8.83
2023-02-05T06:13:43.745Z,8.81
2023-02-05T06:16:13.164Z,8.80
2023-02-05T06:18:41.176Z,8.79
2023-02-05T06:21:10.723Z,8.67
2023-02-05T06:23:38.901Z,8.67
2023-02-05T06:26:07.787Z,8.66
2023-02-05T06:28:36.256Z,8.74
2023-02-05T06:31:05.280Z,8.65
2023-02-05T06:33:34.909Z,8.57
2023-02-05T06:36:03.210Z,8.45
2023-02-05T06:38:31.321Z,8.43
2023-02-05T06:40:59.541Z,8.23
2023-02-05T06:43:27.958Z,8.21
2023-02-05T06:45:56.811Z,8.20
2023-02-05T06:48:25.134Z,8.21
2023-02-05T06:50:55.063Z,8.17
2023-02-05T06:53:23.211Z,8.17
2023-02-05T06:55:51.276Z,8.26
2023-02-05T06:58:19.412Z,8.37
2023-02-05T07:00:47.449Z,8.40
2023-02-05T07:03:15.453Z,8.41
2023-02-05T07:05:43.594Z,8.40
2023-02-05T07:08:13.089Z,8.29
2023-02-05T07:10:41.229Z,8.28
2023-02-05T07:13:10.101Z,8.27
2023-02-05T07:15:38.590Z,8.26
2023-02-05T07:18:07.883Z,8.17
2023-02-05T07:20:36.063Z,8.16
2023-02-05T07:23:05.557Z,8.24
2023-02-05T07:25:37.804Z,8.25
2023-02-05T07:28:06.661Z,8.07
2023-02-05T07:30:35.176Z,8.28
2023-02-05T07:33:04.766Z,8.29
2023-02-05T07:35:35.344Z,8.11
2023-02-05T07:38:04.114Z,8.17
2023-02-05T07:40:32.538Z,8.23
2023-02-05T07:43:02.189Z,8.08
2023-02-05T07:45:30.666Z,7.98
2023-02-05T07:47:58.871Z,8.16
2023-02-05T07:50:26.986Z,8.18
2023-02-05T07:52:55.004Z,8.22
2023-02-05T07:55:23.758Z,8.10
2023-02-05T07:57:51.902Z,8.02
2023-02-05T08:00:25.209Z,8.12
2023-02-05T08:02:53.361Z,8.27
2023-02-05T08:05:21.971Z,8.20
2023-02-05T08:07:50.600Z,8.29
2023-02-05T08:10:19.730Z,8.39
2023-02-05T08:12:47.734Z,8.35
2023-02-05T08:15:15.781Z,8.22
2023-02-05T08:17:45.308Z,8.30
2023-02-05T08:20:14.198Z,8.35
2023-02-05T08:22:45.227Z,8.26
2023-02-05T08:25:15.342Z,8.07
2023-02-05T08:27:44.341Z,7.90
2023-02-05T08:30:14.953Z,7.97
2023-02-05T08:32:42.926Z,8.13
2023-02-05T08:35:12.501Z,8.15
2023-02-05T08:37:40.792Z,8.05
2023-02-05T08:40:10.826Z,8.18
2023-02-05T08:42:39.180Z,8.35
2023-02-05T08:45:09.136Z,8.07
2023-02-05T08:47:37.532Z,8.07
2023-02-05T08:50:07.073Z,8.28
2023-02-05T08:52:36.441Z,8.18
2023-02-05T08:55:05.878Z,8.32
2023-02-05T08:57:34.551Z,8.22
2023-02-05T09:00:02.526Z,8.29
2023-02-05T09:02:32.243Z,8.34
2023-02-05T09:05:08.510Z,8.43
2023-02-05T09:07:39.856Z,8.46
2023-02-05T09:10:09.529Z,8.60
2023-02-05T09:12:37.568Z,8.64
2023-02-05T09:15:06.701Z,8.76
2023-02-05T09:17:34.724Z,8.82
2023-02-05T09:20:03.250Z,8.62
2023-02-05T09:22:33.498Z,8.69
2023-02-05T09:25:03.664Z,8.65
2023-02-05T09:27:32.051Z,8.68
2023-02-05T09:30:00.343Z,8.61
2023-02-05T09:32:28.364Z,8.71
2023-02-05T09:34:56.357Z,8.91
2023-02-05T09:37:25.080Z,8.96
2023-02-05T09:40:19.557Z,9.01
2023-02-05T09:42:49.336Z,8.95
2023-02-05T09:45:38.695Z,9.09
2023-02-05T09:48:25.002Z,9.09
2023-02-05T09:50:53.691Z,9.21
2023-02-05T09:53:25.348Z,9.23
2023-02-05T09:55:54.696Z,9.33
2023-02-05T09:58:28.571Z,9.21
2023-02-05T10:01:03.450Z,9.28
2023-02-05T10:03:38.526Z,9.32
2023-02-05T10:06:23.040Z,9.40
2023-02-05T10:09:02.815Z,9.35
2023-02-05T10:11:42.689Z,9.44
2023-02-05T10:14:24.701Z,9.38
2023-02-05T10:17:09.309Z,9.16
2023-02-05T10:19:55.156Z,8.94
2023-02-05T10:22:28.736Z,8.79
2023-02-05T10:25:34.170Z,8.79
2023-02-05T10:28:10.550Z,8.80
2023-02-05T10:30:50.398Z,8.86
2023-02-05T10:33:36.740Z,8.82
2023-02-05T10:36:08.148Z,8.93
2023-02-05T10:38:44.298Z,9.09
2023-02-05T10:41:37.302Z,8.98
2023-02-05T10:44:14.962Z,9.20
2023-02-05T10:46:51.877Z,9.32
2023-02-05T10:49:25.070Z,9.21
2023-02-05T10:51:55.027Z,9.33
2023-02-05T10:54:28.414Z,9.26
2023-02-05T10:56:59.169Z,9.42
2023-02-05T10:59:30.218Z,9.19
2023-02-05T11:02:03.299Z,9.28
2023-02-05T11:04:38.917Z,9.16
2023-02-05T11:07:15.256Z,9.35
2023-02-05T11:09:45.462Z,9.48
2023-02-05T11:12:23.090Z,9.49
2023-02-05T11:14:58.842Z,9.55
2023-02-05T11:17:33.084Z,9.58
2023-02-05T11:20:05.048Z,9.64
2023-02-05T11:22:35.774Z,9.76
2023-02-05T11:25:17.364Z,9.81
2023-02-05T11:27:58.060Z,9.74
2023-02-05T11:33:27.709Z,9.86
2023-02-05T11:35:59.077Z,10.01
2023-02-05T11:38:33.757Z,10.02
2023-02-05T11:41:04.670Z,10.08
2023-02-05T11:43:35.803Z,9.96
2023-02-05T11:46:09.907Z,10.11
2023-02-05T11:48:44.868Z,10.17
2023-02-05T11:51:16.824Z,10.24
2023-02-05T11:53:53.540Z,10.18
2023-02-05T11:56:25.393Z,10.07
2023-02-05T11:59:01.528Z,9.94
2023-02-05T12:01:34.204Z,10.06
2023-02-05T12:04:15.768Z,10.31
2023-02-05T12:06:50.119Z,10.19
2023-02-05T12:09:21.760Z,10.24
2023-02-05T12:12:03.699Z,10.36
2023-02-05T12:14:43.604Z,10.42
2023-02-05T12:17:34.227Z,10.19
2023-02-05T12:20:16.780Z,10.31
2023-02-05T12:23:03.785Z,10.49
2023-02-05T12:25:37.655Z,10.66
2023-02-05T12:28:21.570Z,10.57
2023-02-05T12:31:00.540Z,10.46
2023-02-05T12:33:45.548Z,10.53
2023-02-05T12:36:30.254Z,10.56
2023-02-05T12:39:10.456Z,10.57
2023-02-05T12:41:49.157Z,10.64
2023-02-05T12:44:32.282Z,10.58
2023-02-05T12:47:14.485Z,10.69
2023-02-05T12:50:01.525Z,10.69
2023-02-05T12:52:42.690Z,10.41
2023-02-05T12:55:25.292Z,10.57
2023-02-05T12:57:57.675Z,10.46
2023-02-05T13:00:30.241Z,10.62
2023-02-05T13:03:07.632Z,10.65
2023-02-05T13:05:41.632Z,10.67
2023-02-05T13:08:17.020Z,10.76
2023-02-05T13:10:51.293Z,10.80
2023-02-05T13:13:26.229Z,10.68
2023-02-05T13:16:03.121Z,10.69
2023-02-05T13:18:36.176Z,10.53
2023-02-05T13:21:24.692Z,10.39
2023-02-05T13:24:30.876Z,10.42
2023-02-05T13:27:16.821Z,10.80
2023-02-05T13:29:51.417Z,10.87
2023-02-05T13:32:25.318Z,11.06
2023-02-05T13:34:56.560Z,11.08
2023-02-05T13:37:59.411Z,11.33
2023-02-05T13:40:56.442Z,11.31
2023-02-05T13:43:49.636Z,11.31
2023-02-05T13:47:02.226Z,11.22
2023-02-05T13:50:18.772Z,11.26
2023-02-05T13:53:24.045Z,11.29
2023-02-05T13:56:19.583Z,11.24
2023-02-05T13:58:52.078Z,11.34
2023-02-05T14:01:25.884Z,11.42
2023-02-05T14:03:58.853Z,11.39
2023-02-05T14:06:31.943Z,11.41
2023-02-05T14:09:07.985Z,11.40
2023-02-05T14:11:52.762Z,11.46
2023-02-05T14:14:27.726Z,11.35
2023-02-05T14:16:57.620Z,11.22
2023-02-05T14:19:47.293Z,11.28
2023-02-05T14:22:36.142Z,11.28
2023-02-05T14:25:05.801Z,11.11
2023-02-05T14:27:55.526Z,11.33
2023-02-05T14:30:49.903Z,11.32
2023-02-05T14:33:39.786Z,11.19
2023-02-05T14:36:47.274Z,11.20
2023-02-05T14:39:30.481Z,10.87
2023-02-05T14:42:01.014Z,10.87
2023-02-05T14:44:33.711Z,11.00
2023-02-05T14:47:07.806Z,10.95
2023-02-05T14:49:43.013Z,11.01
2023-02-05T14:52:28.915Z,11.09
2023-02-05T14:55:01.711Z,11.08
2023-02-05T14:57:42.109Z,11.19
2023-02-05T15:00:30.520Z,11.26
2023-02-05T15:03:38.220Z,11.27
2023-02-05T15:06:10.581Z,11.29
2023-02-05T15:08:47.885Z,11.33
2023-02-05T15:11:24.971Z,11.26
2023-02-05T15:14:33.183Z,11.29
2023-02-05T15:17:54.070Z,11.18
2023-02-05T15:20:32.677Z,11.04
2023-02-05T15:23:35.417Z,10.91
2023-02-05T15:26:07.372Z,10.89
2023-02-05T15:28:40.645Z,10.95
2023-02-05T15:31:19.441Z,10.99
2023-02-05T15:33:55.422Z,10.93
2023-02-05T15:36:33.581Z,11.00
2023-02-05T15:39:19.708Z,11.10
2023-02-05T15:41:48.861Z,11.08
2023-02-05T15:44:27.886Z,10.99
2023-02-05T15:46:57.856Z,10.69
2023-02-05T15:49:33.584Z,10.84
2023-02-05T15:52:03.439Z,10.77
2023-02-05T15:54:35.257Z,10.61
2023-02-05T15:57:06.489Z,10.59
2023-02-05T15:59:37.235Z,10.57
2023-02-05T16:02:10.176Z,10.41
2023-02-05T16:04:40.195Z,10.41
2023-02-05T16:07:23.047Z,10.46
2023-02-05T16:09:56.087Z,10.44
2023-02-05T16:12:25.094Z,10.35
2023-02-05T16:15:04.809Z,10.35
2023-02-05T16:17:40.631Z,10.28
2023-02-05T16:20:28.228Z,10.41
2023-02-05T16:23:00.927Z,10.36
2023-02-05T16:25:41.329Z,10.43
2023-02-05T16:28:20.165Z,10.50
2023-02-05T16:30:53.560Z,10.48
2023-02-05T16:33:31.920Z,10.57
2023-02-05T16:36:03.259Z,10.31
2023-02-05T16:38:35.695Z,10.18
2023-02-05T16:41:22.223Z,10.21
2023-02-05T16:43:52.804Z,10.17
2023-02-05T16:46:26.450Z,10.14
2023-02-05T16:48:57.624Z,10.18
2023-02-05T16:51:32.841Z,10.24
2023-02-05T16:54:28.222Z,10.35
2023-02-05T16:57:01.747Z,10.23
2023-02-05T16:59:34.695Z,9.98
2023-02-05T17:02:04.880Z,10.02
2023-02-05T17:04:35.590Z,9.93
2023-02-05T17:07:06.984Z,9.97
2023-02-05T17:09:38.316Z,10.00
2023-02-05T17:12:41.059Z,10.11
2023-02-05T17:15:30.716Z,10.02
2023-02-05T17:18:04.707Z,9.91
2023-02-05T17:20:34.440Z,9.92
2023-02-05T17:23:15.221Z,10.05
2023-02-05T17:25:55.541Z,10.08
2023-02-05T17:28:30.533Z,10.04
2023-02-05T17:31:03.462Z,10.14
2023-02-05T17:33:32.347Z,10.19
2023-02-05T17:36:03.444Z,10.13
2023-02-05T17:38:35.440Z,10.24
2023-02-05T17:41:22.080Z,10.28
2023-02-05T17:43:52.249Z,10.35
2023-02-05T17:46:25.011Z,10.44
2023-02-05T17:48:52.999Z,10.40
2023-02-05T17:51:23.146Z,10.41
2023-02-05T17:53:52.128Z,10.38
2023-02-05T17:56:22.532Z,10.41
2023-02-05T17:58:52.199Z,10.42
2023-02-05T18:01:22.530Z,10.45
2023-02-05T18:03:50.682Z,10.50
2023-02-05T18:06:19.957Z,10.29
2023-02-05T18:08:48.101Z,10.24
2023-02-05T18:11:16.450Z,10.25
2023-02-05T18:13:45.994Z,10.28
2023-02-05T18:16:14.201Z,10.32
2023-02-05T18:18:42.581Z,10.38
2023-02-05T18:21:11.162Z,10.38
2023-02-05T18:23:40.354Z,10.39
2023-02-05T18:26:13.490Z,10.34
2023-02-05T18:28:44.191Z,10.35
2023-02-05T18:35:04.291Z,10.37
2023-02-05T18:37:32.673Z,10.32
2023-02-05T18:40:00.807Z,10.34
2023-02-05T18:42:30.862Z,10.31
2023-02-05T18:44:59.108Z,10.25
2023-02-05T18:47:28.687Z,10.35
2023-02-05T18:49:57.558Z,10.27
2023-02-05T18:52:27.431Z,10.34
2023-02-05T18:54:55.959Z,10.31
2023-02-05T18:57:24.899Z,10.20
2023-02-05T18:59:53.906Z,10.23
2023-02-05T19:02:22.546Z,10.10
2023-02-05T19:04:55.841Z,10.19
2023-02-05T19:07:24.935Z,10.26
2023-02-05T19:09:53.175Z,10.32
2023-02-05T19:12:21.523Z,10.24
2023-02-05T19:14:50.233Z,10.31
2023-02-05T19:17:19.072Z,10.31
2023-02-05T19:19:52.071Z,10.31
2023-02-05T19:22:20.255Z,10.24
2023-02-05T19:24:48.630Z,10.28
2023-02-05T19:27:18.083Z,10.19
2023-02-05T19:29:46.304Z,10.22
2023-02-05T19:32:14.312Z,10.22
2023-02-05T19:34:43.325Z,10.14
2023-02-05T19:37:12.952Z,10.20
2023-02-05T19:39:40.983Z,10.20
2023-02-05T19:42:08.935Z,10.26
2023-02-05T19:44:37.093Z,10.25
2023-02-05T19:47:06.337Z,10.15
2023-02-05T19:49:35.704Z,10.12
2023-02-05T19:52:03.683Z,10.17
2023-02-05T19:54:33.335Z,10.12
2023-02-05T19:57:01.559Z,10.19
2023-02-05T19:59:29.953Z,10.13
2023-02-05T20:01:58.370Z,10.09
2023-02-05T20:04:28.609Z,10.01
2023-02-05T20:06:58.608Z,9.95
2023-02-05T20:09:29.042Z,9.99
2023-02-05T20:11:59.516Z,10.00
2023-02-05T20:14:29.453Z,9.90
2023-02-05T20:17:01.647Z,9.94
2023-02-05T20:19:30.271Z,9.96
2023-02-05T20:21:58.558Z,10.04
2023-02-05T20:24:28.240Z,10.05
2023-02-05T20:27:00.569Z,10.03
2023-02-05T20:29:55.510Z,10.05
2023-02-05T20:32:27.113Z,10.19
2023-02-05T20:34:55.779Z,9.99
2023-02-05T20:37:26.395Z,9.92
2023-02-05T20:39:57.740Z,9.84
2023-02-05T20:42:29.847Z,9.91
2023-02-05T20:44:58.268Z,9.79
2023-02-05T20:47:26.825Z,9.85
2023-02-05T20:50:01.057Z,9.90
2023-02-05T20:52:44.129Z,9.86
2023-02-05T20:55:14.915Z,9.70
2023-02-05T20:57:46.235Z,9.86
2023-02-05T21:00:16.133Z,9.90
2023-02-05T21:02:44.899Z,9.80
2023-02-05T21:05:14.822Z,9.85
2023-02-05T21:07:44.324Z,9.82
2023-02-05T21:10:13.799Z,9.80
2023-02-05T21:12:42.547Z,9.78
2023-02-05T21:15:13.362Z,9.83
2023-02-05T21:17:43.005Z,9.86
2023-02-05T21:20:12.934Z,9.71
2023-02-05T21:22:45.520Z,9.73
2023-02-05T21:25:14.688Z,9.80
2023-02-05T21:27:47.299Z,9.72
2023-02-05T21:30:18.140Z,9.76
2023-02-05T21:32:48.166Z,9.60
2023-02-05T21:35:19.082Z,9.58
2023-02-05T21:37:48.090Z,9.67
2023-02-05T21:40:17.964Z,9.67
2023-02-05T21:42:47.578Z,9.60
2023-02-05T21:45:18.539Z,9.46
2023-02-05T21:47:48.190Z,9.56
2023-02-05T21:50:16.903Z,9.45
2023-02-05T21:52:48.993Z,9.51
2023-02-05T21:55:18.191Z,9.54
2023-02-05T21:57:47.096Z,9.62
2023-02-05T22:00:18.649Z,9.62
2023-02-05T22:02:47.531Z,9.66
2023-02-05T22:05:16.612Z,9.68
2023-02-05T22:07:46.055Z,9.66
2023-02-05T22:10:14.479Z,9.64
2023-02-05T22:12:47.425Z,9.72
2023-02-05T22:15:17.441Z,9.90
2023-02-05T22:17:45.873Z,9.66
2023-02-05T22:20:15.714Z,9.58
2023-02-05T22:22:43.989Z,9.56
2023-02-05T22:25:12.986Z,9.48
2023-02-05T22:27:42.924Z,9.51
2023-02-05T22:30:11.913Z,9.47
2023-02-05T22:32:41.345Z,9.41
2023-02-05T22:35:10.040Z,9.49
2023-02-05T22:37:38.366Z,9.51
2023-02-05T22:40:07.670Z,9.60
2023-02-05T22:42:35.932Z,9.66
2023-02-05T22:45:04.626Z,9.64
2023-02-05T22:47:33.466Z,9.70
2023-02-05T22:50:03.444Z,9.66
2023-02-05T22:52:31.739Z,9.50
2023-02-05T22:54:59.812Z,9.54
2023-02-05T22:57:28.027Z,9.62
2023-02-05T22:59:57.095Z,9.58
2023-02-05T23:02:25.239Z,9.48
2023-02-05T23:04:54.287Z,9.39
2023-02-05T23:07:23.802Z,9.51
2023-02-05T23:09:51.995Z,9.61
2023-02-05T23:12:25.208Z,9.53
2023-02-05T23:14:54.363Z,9.60
2023-02-05T23:17:24.614Z,9.66
2023-02-05T23:19:53.268Z,9.65
2023-02-05T23:22:21.929Z,9.63
2023-02-05T23:24:53.744Z,9.62
2023-02-05T23:27:30.378Z,9.72
2023-02-05T23:29:58.468Z,9.74
2023-02-05T23:32:30.736Z,9.71
2023-02-05T23:35:02.581Z,9.71
2023-02-05T23:37:30.835Z,9.60
2023-02-05T23:40:00.348Z,9.76
2023-02-05T23:42:28.641Z,9.73
2023-02-05T23:44:59.434Z,9.77
2023-02-05T23:47:31.556Z,9.81
2023-02-05T23:50:00.054Z,9.71
2023-02-05T23:52:28.534Z,9.63
2023-02-05T23:54:56.831Z,9.70
2023-02-05T23:57:28.726Z,9.61
2023-02-05T23:59:59.818Z,9.69
